createdAt,value
2022-10-12T00:01:24.636Z,4.98
2022-10-12T00:03:53.392Z,4.95
2022-10-12T00:06:23.599Z,5.00
2022-10-12T00:08:53.994Z,5.02
2022-10-12T00:11:25.327Z,4.98
2022-10-12T00:13:53.982Z,4.98
2022-10-12T00:16:23.783Z,4.98
2022-10-12T00:18:53.265Z,4.96
2022-10-12T00:21:22.153Z,4.91
2022-10-12T00:23:51.126Z,4.87
2022-10-12T00:26:21.601Z,4.87
2022-10-12T00:28:56.117Z,4.82
2022-10-12T00:31:24.889Z,4.74
2022-10-12T00:33:54.296Z,4.80
2022-10-12T00:36:24.942Z,4.74
2022-10-12T00:38:55.656Z,4.66
2022-10-12T00:41:27.169Z,4.61
2022-10-12T00:43:58.467Z,4.58
2022-10-12T00:46:31.250Z,4.56
2022-10-12T00:49:04.590Z,4.52
2022-10-12T00:51:33.351Z,4.54
2022-10-12T00:54:04.888Z,4.52
2022-10-12T00:56:35.084Z,4.47
2022-10-12T00:59:09.614Z,4.47
2022-10-12T01:01:38.083Z,4.47
2022-10-12T01:04:07.293Z,4.49
2022-10-12T01:06:36.047Z,4.45
2022-10-12T01:09:05.228Z,4.47
2022-10-12T01:11:33.805Z,4.37
2022-10-12T01:14:02.652Z,4.38
2022-10-12T01:16:37.920Z,4.37
2022-10-12T01:19:16.957Z,4.32
2022-10-12T01:21:47.626Z,4.34
2022-10-12T01:24:47.385Z,4.39
2022-10-12T01:27:37.608Z,4.40
2022-10-12T01:30:17.601Z,4.40
2022-10-12T01:32:56.031Z,4.36
2022-10-12T01:35:27.948Z,4.37
2022-10-12T01:38:04.443Z,4.38
2022-10-12T01:40:38.833Z,4.47
2022-10-12T01:43:08.654Z,4.49
2022-10-12T01:45:38.674Z,4.48
2022-10-12T01:48:07.665Z,4.50
2022-10-12T01:50:44.214Z,4.53
2022-10-12T01:53:18.286Z,4.48
2022-10-12T01:55:51.535Z,4.43
2022-10-12T01:58:30.304Z,4.40
2022-10-12T02:01:07.734Z,4.32
2022-10-12T02:03:43.089Z,4.29
2022-10-12T02:06:14.138Z,4.24
2022-10-12T02:08:47.919Z,4.24
2022-10-12T02:11:18.692Z,4.23
2022-10-12T02:13:49.572Z,4.22
2022-10-12T02:16:22.064Z,4.16
2022-10-12T02:18:52.721Z,4.14
2022-10-12T02:21:23.520Z,4.12
2022-10-12T02:23:54.186Z,4.10
2022-10-12T02:26:23.436Z,4.09
2022-10-12T02:28:52.022Z,4.14
2022-10-12T02:31:28.548Z,4.16
2022-10-12T02:34:02.270Z,4.20
2022-10-12T02:36:37.309Z,4.22
2022-10-12T02:39:10.057Z,4.24
2022-10-12T02:41:42.255Z,4.26
2022-10-12T02:44:13.969Z,4.24
2022-10-12T02:46:44.249Z,4.25
2022-10-12T02:49:13.433Z,4.22
2022-10-12T02:51:42.367Z,4.20
2022-10-12T02:54:11.023Z,4.21
2022-10-12T02:56:44.993Z,4.18
2022-10-12T02:59:14.341Z,4.13
2022-10-12T03:01:44.366Z,4.09
2022-10-12T03:04:12.875Z,4.13
2022-10-12T03:06:42.617Z,4.17
2022-10-12T03:09:11.191Z,4.20
2022-10-12T03:11:43.839Z,4.21
2022-10-12T03:14:12.956Z,4.20
2022-10-12T03:16:41.237Z,4.16
2022-10-12T03:19:11.354Z,4.18
2022-10-12T03:21:39.952Z,4.20
2022-10-12T03:24:08.945Z,4.18
2022-10-12T03:26:37.730Z,4.17
2022-10-12T03:29:06.516Z,4.12
2022-10-12T03:31:34.807Z,4.08
2022-10-12T03:34:03.423Z,4.05
2022-10-12T03:36:34.611Z,4.07
2022-10-12T03:39:03.286Z,4.06
2022-10-12T03:41:31.932Z,4.09
2022-10-12T03:44:00.575Z,4.06
2022-10-12T03:46:28.864Z,4.05
2022-10-12T03:48:57.484Z,4.06
2022-10-12T03:51:26.361Z,4.02
2022-10-12T03:53:56.425Z,4.03
2022-10-12T03:56:24.982Z,3.97
2022-10-12T03:58:53.228Z,3.91
2022-10-12T04:01:22.005Z,3.85
2022-10-12T04:03:50.790Z,3.83
2022-10-12T04:06:19.417Z,3.81
2022-10-12T04:08:51.028Z,3.78
2022-10-12T04:11:21.559Z,3.76
2022-10-12T04:13:49.967Z,3.77
2022-10-12T04:16:18.637Z,3.73
2022-10-12T04:18:47.622Z,3.73
2022-10-12T04:21:17.594Z,3.72
2022-10-12T04:23:46.342Z,3.67
2022-10-12T04:26:15.066Z,3.66
2022-10-12T04:28:44.831Z,3.68
2022-10-12T04:31:13.506Z,3.66
2022-10-12T04:33:42.163Z,3.65
2022-10-12T04:36:11.039Z,3.59
2022-10-12T04:38:39.704Z,3.58
2022-10-12T04:41:08.305Z,3.56
2022-10-12T04:43:36.583Z,3.56
2022-10-12T04:46:06.768Z,3.57
2022-10-12T04:48:35.477Z,3.53
2022-10-12T04:51:04.196Z,3.44
2022-10-12T04:53:33.155Z,3.45
2022-10-12T04:56:03.702Z,3.50
2022-10-12T04:58:31.881Z,3.55
2022-10-12T05:01:00.648Z,3.57
2022-10-12T05:03:30.635Z,3.56
2022-10-12T05:05:59.301Z,3.58
2022-10-12T05:08:27.938Z,3.62
2022-10-12T05:10:58.491Z,3.64
2022-10-12T05:13:27.417Z,3.68
2022-10-12T05:15:56.291Z,3.65
2022-10-12T05:18:25.241Z,3.69
2022-10-12T05:20:57.140Z,3.77
2022-10-12T05:23:26.017Z,3.77
2022-10-12T05:25:55.845Z,3.82
2022-10-12T05:28:26.054Z,3.84
2022-10-12T05:30:54.999Z,3.91
2022-10-12T05:33:23.657Z,3.97
2022-10-12T05:35:56.343Z,4.04
2022-10-12T05:38:26.814Z,4.13
2022-10-12T05:41:00.066Z,4.23
2022-10-12T05:43:29.879Z,4.28
2022-10-12T05:45:58.802Z,4.34
2022-10-12T05:48:27.697Z,4.43
2022-10-12T05:50:56.485Z,4.52
2022-10-12T05:53:26.609Z,4.66
2022-10-12T05:55:55.872Z,4.73
2022-10-12T05:58:25.201Z,4.82
2022-10-12T06:00:54.210Z,4.91
2022-10-12T06:03:26.201Z,5.05
2022-10-12T06:05:55.168Z,5.17
2022-10-12T06:08:23.851Z,5.18
2022-10-12T06:10:54.083Z,5.31
2022-10-12T06:13:22.837Z,5.45
2022-10-12T06:15:51.671Z,5.54
2022-10-12T06:18:20.466Z,5.82
2022-10-12T06:20:49.821Z,6.72
2022-10-12T06:23:18.863Z,7.85
2022-10-12T06:25:48.263Z,9.20
2022-10-12T06:28:19.485Z,10.48
2022-10-12T06:30:48.619Z,11.29
2022-10-12T06:33:17.210Z,11.63
2022-10-12T06:35:45.891Z,12.37
2022-10-12T06:38:14.481Z,13.48
2022-10-12T06:40:43.059Z,14.49
2022-10-12T06:43:11.692Z,15.23
2022-10-12T06:45:41.710Z,15.65
2022-10-12T06:48:12.845Z,16.48
2022-10-12T06:50:43.625Z,16.25
2022-10-12T06:53:12.311Z,17.29
2022-10-12T06:55:41.312Z,17.34
2022-10-12T06:58:10.016Z,17.50
2022-10-12T07:00:39.040Z,17.88
2022-10-12T07:03:11.155Z,18.10
2022-10-12T07:05:39.775Z,18.64
2022-10-12T07:08:08.447Z,19.55
2022-10-12T07:10:36.729Z,19.17
2022-10-12T07:13:05.368Z,19.48
2022-10-12T07:15:34.014Z,19.55
2022-10-12T07:18:02.615Z,20.33
2022-10-12T07:20:32.663Z,21.00
2022-10-12T07:23:01.277Z,21.23
2022-10-12T07:25:29.617Z,21.56
2022-10-12T07:27:58.287Z,21.79
2022-10-12T07:30:27.001Z,22.53
2022-10-12T07:32:55.886Z,22.29
2022-10-12T07:35:26.309Z,23.29
2022-10-12T07:37:56.138Z,24.21
2022-10-12T07:40:26.374Z,23.93
2022-10-12T07:43:16.505Z,24.29
2022-10-12T07:45:44.414Z,23.76
2022-10-12T07:48:13.348Z,24.32
2022-10-12T07:50:41.998Z,24.29
2022-10-12T07:53:12.021Z,25.17
2022-10-12T07:55:40.348Z,24.63
2022-10-12T07:58:09.041Z,24.73
2022-10-12T08:00:37.755Z,25.48
2022-10-12T08:03:06.549Z,26.34
2022-10-12T08:05:38.200Z,27.23
2022-10-12T08:08:08.886Z,26.33
2022-10-12T08:10:38.900Z,25.83
2022-10-12T08:13:07.478Z,25.80
2022-10-12T08:15:36.083Z,24.61
2022-10-12T08:18:04.905Z,24.67
2022-10-12T08:20:33.584Z,25.89
2022-10-12T08:23:02.173Z,25.90
2022-10-12T08:25:30.599Z,26.08
2022-10-12T08:28:01.250Z,25.99
2022-10-12T08:30:29.898Z,26.68
2022-10-12T08:32:58.585Z,27.36
2022-10-12T08:35:27.387Z,26.64
2022-10-12T08:37:55.939Z,25.37
2022-10-12T08:40:32.048Z,25.39
2022-10-12T08:43:07.725Z,24.84
2022-10-12T08:45:39.849Z,25.23
2022-10-12T08:48:12.910Z,25.08
2022-10-12T08:50:45.517Z,24.59
2022-10-12T08:53:17.495Z,24.49
2022-10-12T08:55:46.823Z,24.25
2022-10-12T08:58:20.784Z,24.09
2022-10-12T09:00:51.993Z,23.96
2022-10-12T09:03:33.747Z,25.37
2022-10-12T09:06:09.852Z,28.19
2022-10-12T09:08:48.878Z,31.35
2022-10-12T09:11:38.866Z,33.62
2022-10-12T09:14:09.100Z,35.00
2022-10-12T09:16:41.435Z,31.93
2022-10-12T09:19:14.811Z,31.46
2022-10-12T09:21:43.872Z,31.92
2022-10-12T09:24:16.463Z,34.07
2022-10-12T09:26:46.505Z,32.47
2022-10-12T09:29:24.281Z,30.78
2022-10-12T09:32:12.055Z,29.11
2022-10-12T09:34:41.294Z,30.12
2022-10-12T09:37:14.181Z,29.40
2022-10-12T09:39:43.128Z,29.82
2022-10-12T09:42:12.534Z,30.97
2022-10-12T09:44:46.350Z,31.28
2022-10-12T09:47:27.158Z,32.13
2022-10-12T09:49:58.858Z,31.64
2022-10-12T09:52:30.842Z,31.73
2022-10-12T09:55:03.562Z,31.26
2022-10-12T09:57:35.624Z,30.79
2022-10-12T10:00:08.863Z,29.21
2022-10-12T10:02:50.303Z,28.21
2022-10-12T10:05:26.849Z,28.70
2022-10-12T10:08:16.021Z,29.37
2022-10-12T10:10:49.478Z,29.66
2022-10-12T10:13:18.400Z,31.89
2022-10-12T10:15:50.490Z,32.34
2022-10-12T10:18:24.003Z,32.29
2022-10-12T10:20:55.183Z,31.36
2022-10-12T10:23:27.107Z,31.57
2022-10-12T10:25:57.744Z,30.47
2022-10-12T10:28:29.876Z,31.14
2022-10-12T10:31:02.858Z,30.03
2022-10-12T10:33:33.038Z,31.29
2022-10-12T10:36:04.814Z,33.54
2022-10-12T10:38:46.209Z,34.46
2022-10-12T10:41:18.187Z,32.65
2022-10-12T10:43:47.574Z,30.62
2022-10-12T10:46:17.491Z,27.87
2022-10-12T10:48:52.953Z,27.22
2022-10-12T10:51:21.689Z,30.05
2022-10-12T10:53:51.404Z,32.06
2022-10-12T10:56:22.180Z,33.30
2022-10-12T10:58:52.892Z,35.18
2022-10-12T11:01:26.645Z,32.37
2022-10-12T11:03:59.517Z,25.86
2022-10-12T11:06:34.290Z,23.69
2022-10-12T11:09:06.308Z,24.41
2022-10-12T11:11:37.841Z,25.26
2022-10-12T11:14:13.916Z,26.75
2022-10-12T11:16:47.029Z,23.78
2022-10-12T11:19:25.802Z,21.30
2022-10-12T11:21:56.024Z,24.97
2022-10-12T11:24:28.962Z,27.90
2022-10-12T11:26:59.390Z,29.96
2022-10-12T11:29:28.903Z,31.16
2022-10-12T11:32:04.383Z,30.69
2022-10-12T11:34:44.054Z,30.79
2022-10-12T11:37:20.313Z,32.72
2022-10-12T11:39:51.731Z,32.77
2022-10-12T11:42:30.727Z,32.19
2022-10-12T11:45:00.943Z,31.80
2022-10-12T11:47:37.831Z,33.25
2022-10-12T11:50:08.996Z,34.48
2022-10-12T11:52:40.557Z,37.59
2022-10-12T11:55:25.521Z,40.26
2022-10-12T11:57:55.600Z,41.15
2022-10-12T12:00:26.792Z,38.43
2022-10-12T12:03:00.832Z,28.70
2022-10-12T12:05:33.891Z,24.64
2022-10-12T12:08:03.220Z,22.48
2022-10-12T12:11:05.880Z,22.94
2022-10-12T12:13:34.509Z,28.45
2022-10-12T12:16:34.094Z,29.42
2022-10-12T12:19:18.754Z,24.22
2022-10-12T12:22:14.918Z,23.97
2022-10-12T12:24:53.372Z,23.30
2022-10-12T12:27:23.915Z,22.44
2022-10-12T12:29:52.943Z,25.23
2022-10-12T12:32:22.409Z,27.47
2022-10-12T12:35:00.266Z,28.86
2022-10-12T12:37:33.472Z,26.64
2022-10-12T12:40:02.185Z,22.39
2022-10-12T12:42:32.349Z,20.61
2022-10-12T12:45:06.356Z,19.71
2022-10-12T12:47:45.514Z,21.52
2022-10-12T12:50:36.731Z,24.19
2022-10-12T12:53:08.246Z,24.39
2022-10-12T12:55:47.427Z,23.90
2022-10-12T12:58:43.183Z,25.00
2022-10-12T13:01:23.754Z,23.58
2022-10-12T13:04:12.108Z,21.89
2022-10-12T13:07:01.762Z,19.70
2022-10-12T13:09:43.513Z,18.05
2022-10-12T13:12:34.379Z,17.35
2022-10-12T13:15:30.046Z,16.86
2022-10-12T13:18:45.668Z,16.26
2022-10-12T13:21:17.654Z,16.22
2022-10-12T13:23:49.466Z,15.97
2022-10-12T13:26:21.242Z,15.70
2022-10-12T13:28:51.264Z,15.48
2022-10-12T13:31:22.959Z,15.00
2022-10-12T13:33:59.730Z,14.54
2022-10-12T13:36:30.522Z,14.40
2022-10-12T13:39:09.154Z,14.40
2022-10-12T13:41:37.841Z,15.70
2022-10-12T13:44:07.430Z,17.50
2022-10-12T13:46:38.991Z,18.58
2022-10-12T13:49:15.989Z,17.91
2022-10-12T13:51:45.813Z,17.10
2022-10-12T13:54:19.183Z,16.69
2022-10-12T13:56:48.528Z,16.29
2022-10-12T13:59:20.201Z,16.13
2022-10-12T14:01:53.335Z,15.74
2022-10-12T14:04:22.210Z,15.14
2022-10-12T14:06:57.365Z,14.80
2022-10-12T14:09:28.813Z,14.56
2022-10-12T14:11:57.558Z,14.53
2022-10-12T14:14:32.086Z,14.53
2022-10-12T14:17:00.690Z,14.62
2022-10-12T14:19:37.318Z,14.40
2022-10-12T14:22:06.130Z,14.14
2022-10-12T14:24:36.886Z,14.09
2022-10-12T14:27:07.102Z,14.05
2022-10-12T14:29:38.355Z,13.86
2022-10-12T14:32:08.616Z,13.73
2022-10-12T14:34:40.991Z,13.63
2022-10-12T14:37:31.869Z,13.58
2022-10-12T14:40:24.872Z,13.42
2022-10-12T14:42:59.330Z,13.42
2022-10-12T14:45:28.382Z,13.38
2022-10-12T14:47:57.335Z,13.29
2022-10-12T14:50:26.034Z,13.31
2022-10-12T14:52:56.359Z,13.34
2022-10-12T14:55:28.021Z,13.41
2022-10-12T14:57:56.688Z,13.44
2022-10-12T15:00:26.897Z,13.39
2022-10-12T15:02:55.913Z,13.27
2022-10-12T15:05:25.657Z,13.16
2022-10-12T15:07:54.167Z,13.15
2022-10-12T15:10:24.079Z,13.17
2022-10-12T15:12:54.803Z,13.17
2022-10-12T15:15:33.371Z,13.18
2022-10-12T15:18:02.326Z,13.08
2022-10-12T15:20:31.662Z,12.97
2022-10-12T15:23:01.008Z,12.76
2022-10-12T15:25:38.047Z,12.62
2022-10-12T15:28:08.256Z,12.51
2022-10-12T15:30:52.075Z,12.43
2022-10-12T15:33:25.822Z,12.39
2022-10-12T15:35:54.428Z,12.38
2022-10-12T15:38:23.143Z,12.36
2022-10-12T15:40:52.904Z,12.35
2022-10-12T15:43:23.015Z,12.30
2022-10-12T15:45:52.002Z,12.24
2022-10-12T15:48:20.653Z,12.16
2022-10-12T15:50:50.366Z,12.14
2022-10-12T15:53:22.297Z,12.09
2022-10-12T15:55:50.730Z,12.02
2022-10-12T15:58:19.315Z,11.94
2022-10-12T16:00:49.410Z,11.91
2022-10-12T16:03:25.922Z,11.83
2022-10-12T16:05:55.235Z,11.76
2022-10-12T16:08:23.947Z,11.69
2022-10-12T16:10:52.571Z,11.66
2022-10-12T16:13:21.507Z,11.66
2022-10-12T16:15:51.501Z,11.65
2022-10-12T16:18:20.270Z,11.67
2022-10-12T16:20:53.610Z,11.70
2022-10-12T16:23:25.112Z,11.68
2022-10-12T16:25:53.539Z,11.68
2022-10-12T16:28:22.909Z,11.68
2022-10-12T16:30:53.775Z,11.70
2022-10-12T16:33:22.671Z,11.69
2022-10-12T16:35:51.360Z,11.68
2022-10-12T16:38:20.945Z,11.65
2022-10-12T16:40:50.080Z,11.69
2022-10-12T16:43:19.600Z,11.67
2022-10-12T16:45:57.417Z,11.67
2022-10-12T16:48:26.098Z,11.69
2022-10-12T16:50:54.738Z,11.72
2022-10-12T16:53:23.674Z,11.71
2022-10-12T16:55:52.563Z,11.69
2022-10-12T16:58:21.272Z,11.70
2022-10-12T17:00:50.173Z,11.71
2022-10-12T17:03:20.284Z,11.74
2022-10-12T17:05:49.016Z,11.74
2022-10-12T17:08:17.940Z,11.73
2022-10-12T17:10:46.359Z,11.71
2022-10-12T17:13:15.153Z,11.69
2022-10-12T17:15:43.907Z,11.64
2022-10-12T17:18:12.609Z,11.58
2022-10-12T17:20:42.622Z,11.60
2022-10-12T17:23:11.389Z,11.62
2022-10-12T17:25:39.656Z,11.65
2022-10-12T17:28:08.324Z,11.64
2022-10-12T17:30:38.619Z,11.63
2022-10-12T17:33:07.364Z,11.62
2022-10-12T17:35:40.500Z,11.64
2022-10-12T17:38:10.667Z,11.66
2022-10-12T17:40:40.427Z,11.65
2022-10-12T17:43:09.124Z,11.65
2022-10-12T17:45:40.658Z,11.65
2022-10-12T17:48:09.402Z,11.62
2022-10-12T17:50:39.626Z,11.59
2022-10-12T17:53:11.581Z,11.56
2022-10-12T17:55:48.948Z,11.49
2022-10-12T17:58:17.969Z,11.49
2022-10-12T18:00:46.805Z,11.50
2022-10-12T18:03:15.519Z,11.51
2022-10-12T18:05:46.483Z,11.45
2022-10-12T18:08:16.641Z,11.45
2022-10-12T18:10:45.153Z,11.41
2022-10-12T18:13:13.867Z,11.40
2022-10-12T18:15:44.516Z,11.41
2022-10-12T18:18:15.305Z,11.42
2022-10-12T18:20:44.286Z,11.46
2022-10-12T18:23:13.185Z,11.44
2022-10-12T18:25:43.967Z,11.45
2022-10-12T18:28:13.555Z,11.41
2022-10-12T18:30:48.042Z,11.39
2022-10-12T18:33:17.482Z,11.36
2022-10-12T18:35:46.141Z,11.38
2022-10-12T18:38:14.848Z,11.36
2022-10-12T18:40:44.757Z,11.34
2022-10-12T18:43:13.414Z,11.34
2022-10-12T18:45:43.370Z,11.34
2022-10-12T18:48:12.120Z,11.30
2022-10-12T18:50:41.482Z,11.29
2022-10-12T18:53:10.126Z,11.29
2022-10-12T18:55:39.120Z,11.29
2022-10-12T18:58:09.194Z,11.23
2022-10-12T19:00:38.363Z,11.20
2022-10-12T19:03:07.134Z,11.12
2022-10-12T19:05:35.824Z,11.07
2022-10-12T19:08:04.443Z,10.90
2022-10-12T19:10:32.747Z,10.80
2022-10-12T19:13:01.385Z,10.78
2022-10-12T19:15:31.401Z,10.77
2022-10-12T19:18:00.116Z,10.73
2022-10-12T19:20:28.772Z,10.62
2022-10-12T19:22:57.394Z,10.53
2022-10-12T19:25:25.774Z,10.47
2022-10-12T19:27:54.373Z,10.41
2022-10-12T19:30:23.030Z,10.36
2022-10-12T19:32:53.237Z,10.31
2022-10-12T19:35:23.812Z,10.24
2022-10-12T19:37:54.015Z,10.16
2022-10-12T19:40:22.465Z,10.12
2022-10-12T19:42:51.057Z,10.09
2022-10-12T19:45:19.626Z,10.04
2022-10-12T19:47:48.313Z,9.93
2022-10-12T19:50:18.596Z,9.83
2022-10-12T19:52:46.976Z,9.79
2022-10-12T19:55:17.464Z,9.72
2022-10-12T19:57:48.725Z,9.68
2022-10-12T20:00:17.876Z,9.61
2022-10-12T20:02:47.073Z,9.53
2022-10-12T20:05:15.734Z,9.50
2022-10-12T20:07:45.573Z,9.42
2022-10-12T20:10:14.207Z,9.32
2022-10-12T20:12:42.785Z,9.26
2022-10-12T20:15:12.323Z,9.27
2022-10-12T20:17:40.963Z,9.24
2022-10-12T20:20:10.580Z,9.15
2022-10-12T20:22:38.797Z,9.01
2022-10-12T20:25:09.895Z,8.89
2022-10-12T20:27:38.770Z,8.79
2022-10-12T20:30:08.488Z,8.77
2022-10-12T20:32:37.169Z,8.73
2022-10-12T20:35:06.775Z,8.73
2022-10-12T20:37:35.422Z,8.67
2022-10-12T20:40:04.262Z,8.56
2022-10-12T20:42:34.303Z,8.45
2022-10-12T20:45:02.934Z,8.37
2022-10-12T20:47:31.647Z,8.31
2022-10-12T20:50:00.330Z,8.31
2022-10-12T20:52:28.737Z,8.32
2022-10-12T20:54:57.444Z,8.32
2022-10-12T20:57:26.084Z,8.26
2022-10-12T20:59:56.082Z,8.23
2022-10-12T21:02:24.681Z,8.25
2022-10-12T21:04:52.912Z,8.15
2022-10-12T21:07:21.594Z,8.13
2022-10-12T21:09:51.993Z,8.15
2022-10-12T21:12:20.847Z,8.17
2022-10-12T21:14:49.769Z,8.20
2022-10-12T21:17:20.355Z,8.16
2022-10-12T21:19:49.534Z,8.17
2022-10-12T21:22:18.511Z,8.16
2022-10-12T21:24:47.500Z,8.07
2022-10-12T21:27:16.196Z,8.01
2022-10-12T21:29:44.808Z,7.95
2022-10-12T21:32:13.322Z,7.83
2022-10-12T21:34:42.978Z,7.75
2022-10-12T21:37:11.795Z,7.67
2022-10-12T21:39:40.534Z,7.62
2022-10-12T21:42:09.174Z,7.58
2022-10-12T21:44:37.959Z,7.62
2022-10-12T21:47:06.515Z,7.56
2022-10-12T21:49:34.846Z,7.56
2022-10-12T21:52:05.064Z,7.65
2022-10-12T21:54:33.762Z,7.69
2022-10-12T21:57:02.417Z,7.75
2022-10-12T21:59:34.195Z,7.78
2022-10-12T22:02:02.852Z,7.77
2022-10-12T22:04:33.264Z,7.79
2022-10-12T22:07:02.007Z,7.79
2022-10-12T22:09:32.063Z,7.80
2022-10-12T22:12:00.775Z,7.72
2022-10-12T22:14:29.461Z,7.76
2022-10-12T22:16:58.049Z,7.74
2022-10-12T22:19:26.517Z,7.67
2022-10-12T22:21:55.232Z,7.56
2022-10-12T22:24:29.228Z,7.45
2022-10-12T22:26:59.405Z,7.41
2022-10-12T22:29:28.033Z,7.34
2022-10-12T22:31:56.416Z,7.32
2022-10-12T22:34:25.070Z,7.31
2022-10-12T22:36:53.653Z,7.42
2022-10-12T22:39:26.060Z,7.38
2022-10-12T22:41:54.729Z,7.25
2022-10-12T22:44:27.613Z,7.28
2022-10-12T22:46:56.767Z,7.23
2022-10-12T22:49:25.400Z,7.19
2022-10-12T22:51:54.115Z,7.13
2022-10-12T22:54:22.803Z,7.02
2022-10-12T22:56:51.966Z,6.96
2022-10-12T22:59:20.681Z,6.91
2022-10-12T23:01:50.355Z,6.85
2022-10-12T23:04:19.083Z,6.74
2022-10-12T23:06:47.709Z,6.72
2022-10-12T23:09:16.298Z,6.69
2022-10-12T23:11:44.971Z,6.63
2022-10-12T23:14:13.581Z,6.65
2022-10-12T23:16:41.867Z,6.65
2022-10-12T23:19:11.946Z,6.66
2022-10-12T23:21:40.616Z,6.66
2022-10-12T23:24:10.694Z,6.68
2022-10-12T23:26:39.361Z,6.75
2022-10-12T23:29:07.977Z,6.81
2022-10-12T23:31:36.995Z,6.87
2022-10-12T23:34:06.823Z,6.89
2022-10-12T23:36:36.821Z,6.83
2022-10-12T23:39:06.600Z,6.68
2022-10-12T23:41:35.232Z,6.53
2022-10-12T23:44:03.950Z,6.39
2022-10-12T23:46:32.303Z,6.36
2022-10-12T23:49:00.961Z,6.33
2022-10-12T23:51:29.782Z,6.35
2022-10-12T23:53:59.889Z,6.33
2022-10-12T23:56:28.651Z,6.24
2022-10-12T23:58:57.275Z,6.18
